Time;durP1;ratioP1;P1;durP2;ratioP2;P2;SDS_P1;SDS_P2;PMS_P1;PMS_P2;Temp;Humidity;BMP_temperature;BMP_pressure;BME280_temperature;BME280_humidity;BME280_pressure;Samples;Min_cycle;Max_cycle;Signal;HPM_P1;HPM_P2
2022/01/29 00:01:02;;;;;;;4.47;4.17;;;;;;;23.13;29.26;95440.22;7295251;19;138159;-57
2022/01/29 00:03:30;;;;;;;4.00;3.70;;;;;;;23.10;29.19;95441.59;7294715;19;137263;-57
2022/01/29 00:05:58;;;;;;;3.70;3.40;;;;;;;23.05;28.83;95433.72;7281106;19;137131;-57
2022/01/29 00:08:23;;;;;;;4.27;3.87;;;;;;;23.11;28.71;95445.06;7295034;19;137055;-57
2022/01/29 00:10:54;;;;;;;4.53;4.13;;;;;;;23.07;28.83;95444.88;7295408;19;137053;-57
2022/01/29 00:13:19;;;;;;;3.93;3.63;;;;;;;23.06;28.55;95445.94;7294989;19;138570;-56
2022/01/29 00:15:45;;;;;;;5.07;4.00;;;;;;;23.05;28.85;95449.69;7280431;19;137986;-56
2022/01/29 00:18:10;;;;;;;4.00;3.60;;;;;;;23.02;28.40;95444.97;7291879;19;138628;-56
2022/01/29 00:20:36;;;;;;;3.43;3.23;;;;;;;23.01;28.62;95447.91;7294075;19;136599;-56
2022/01/29 00:23:01;;;;;;;5.73;4.03;;;;;;;23.03;29.12;95451.88;7294217;19;137237;-57
2022/01/29 00:25:27;;;;;;;3.90;3.60;;;;;;;23.04;28.67;95455.31;7295170;19;137214;-57
2022/01/29 00:27:54;;;;;;;4.00;3.70;;;;;;;23.01;28.52;95461.22;7281685;19;138357;-56
2022/01/29 00:30:24;;;;;;;3.73;3.43;;;;;;;23.02;28.33;95460.16;7293712;19;137338;-56
2022/01/29 00:32:50;;;;;;;4.10;3.67;;;;;;;23.02;28.89;95466.28;7295051;19;137261;-56
2022/01/29 00:35:15;;;;;;;3.30;3.00;;;;;;;22.83;28.41;95425.56;7294369;19;137617;-56
2022/01/29 00:37:41;;;;;;;3.60;3.30;;;;;;;22.96;28.83;95440.78;7280307;19;136633;-56
2022/01/29 00:40:07;;;;;;;5.17;3.80;;;;;;;23.02;28.83;95460.97;7295096;19;136813;-56
2022/01/29 00:42:32;;;;;;;3.30;3.00;;;;;;;23.03;28.71;95454.53;7293204;19;138196;-56
2022/01/29 00:44:58;;;;;;;4.13;3.83;;;;;;;23.02;28.43;95449.50;7294728;19;137489;-56
2022/01/29 00:47:23;;;;;;;3.67;3.30;;;;;;;23.00;28.38;95449.78;7292607;19;136986;-56
2022/01/29 00:49:49;;;;;;;3.33;3.03;;;;;;;22.99;28.64;95453.53;7280764;19;138000;-56
2022/01/29 00:52:14;;;;;;;3.40;3.20;;;;;;;23.03;28.94;95457.19;7292797;19;138320;-56
2022/01/29 00:54:40;;;;;;;3.83;3.53;;;;;;;23.02;28.88;95455.63;7293824;19;137265;-56
2022/01/29 00:57:06;;;;;;;3.83;3.30;;;;;;;23.02;28.87;95457.50;7293551;19;137386;-56
2022/01/29 00:59:33;;;;;;;3.30;3.00;;;;;;;23.01;28.48;95459.38;7281735;19;139698;-56
2022/01/29 01:01:59;;;;;;;4.03;3.30;;;;;;;22.99;28.37;95448.19;7293015;19;137458;-56
2022/01/29 01:04:25;;;;;;;3.97;3.23;;;;;;;22.95;29.16;95436.56;7293583;19;137859;-56
2022/01/29 01:06:50;;;;;;;5.00;3.10;;;;;;;23.01;29.02;95447.91;7294032;19;136990;-56
2022/01/29 01:09:16;;;;;;;3.17;2.97;;;;;;;23.04;29.05;95442.00;7294216;19;136888;-56
2022/01/29 01:11:42;;;;;;;3.70;3.33;;;;;;;23.02;29.02;95444.19;7279674;19;139031;-56
2022/01/29 01:14:07;;;;;;;3.23;2.93;;;;;;;23.03;28.86;95438.56;7294512;19;137365;-58
2022/01/29 01:16:33;;;;;;;3.47;3.17;;;;;;;23.02;28.42;95438.84;7293446;19;136992;-56
2022/01/29 01:19:00;;;;;;;3.20;3.00;;;;;;;23.01;28.43;95443.38;7290658;19;137100;-56
2022/01/29 01:21:26;;;;;;;3.83;3.53;;;;;;;23.02;28.49;95446.84;7281165;19;138725;-56
2022/01/29 01:23:51;;;;;;;3.30;3.00;;;;;;;22.96;29.08;95427.47;7293293;19;136999;-57
2022/01/29 01:26:18;;;;;;;3.03;2.83;;;;;;;23.02;28.35;95434.31;7292125;19;137464;-55
2022/01/29 01:28:43;;;;;;;3.07;2.87;;;;;;;23.01;28.92;95434.56;7297651;19;138239;-56
2022/01/29 01:31:09;;;;;;;3.60;3.30;;;;;;;23.01;28.92;95430.06;7299654;19;137849;-56
2022/01/29 01:33:34;;;;;;;3.77;3.47;;;;;;;23.01;28.98;95424.72;7285506;19;137369;-56
2022/01/29 01:36:03;;;;;;;3.60;3.30;;;;;;;23.01;28.44;95421.25;7300092;19;137695;-56
2022/01/29 01:38:39;;;;;;;3.30;3.10;;;;;;;23.01;28.46;95419.41;7299048;19;137575;-56
2022/01/29 01:41:09;;;;;;;3.00;2.80;;;;;;;22.95;28.58;95412.56;7299569;19;137988;-56
2022/01/29 01:43:34;;;;;;;3.50;3.20;;;;;;;23.03;28.43;95421.78;7285578;19;137320;-57
2022/01/29 01:46:00;;;;;;;3.43;3.13;;;;;;;23.03;29.00;95425.22;7299444;19;138058;-55
2022/01/29 01:48:25;;;;;;;3.27;2.97;;;;;;;23.02;28.51;95422.84;7299309;19;137873;-57
2022/01/29 01:50:51;;;;;;;2.93;2.73;;;;;;;22.96;29.01;95418.69;7299374;19;137284;-57
2022/01/29 01:53:17;;;;;;;3.50;3.20;;;;;;;23.01;28.43;95438.06;7297948;19;138616;-57
2022/01/29 01:55:43;;;;;;;3.50;2.90;;;;;;;23.02;29.26;95428.97;7283406;19;137180;-57
2022/01/29 01:58:08;;;;;;;3.77;3.43;;;;;;;23.02;28.84;95439.63;7298538;19;137009;-57
2022/01/29 02:00:34;;;;;;;2.87;2.67;;;;;;;23.03;28.66;95437.75;7298845;19;136929;-57
2022/01/29 02:03:00;;;;;;;3.17;2.97;;;;;;;23.03;29.21;95429.75;7295810;19;139796;-57
2022/01/29 02:05:26;;;;;;;3.07;2.87;;;;;;;22.99;28.60;95424.22;7285805;19;137176;-57
2022/01/29 02:07:52;;;;;;;3.10;2.90;;;;;;;23.04;28.57;95436.69;7299044;19;137462;-57
2022/01/29 02:10:19;;;;;;;3.13;2.83;;;;;;;23.04;28.79;95429.47;7299316;19;138292;-56
2022/01/29 02:12:53;;;;;;;3.67;2.97;;;;;;;23.03;28.74;95427.88;7298358;19;139027;-56
2022/01/29 02:15:20;;;;;;;2.83;2.63;;;;;;;23.01;29.19;95435.41;7300158;19;137907;-56
2022/01/29 02:17:46;;;;;;;3.10;2.90;;;;;;;23.04;28.97;95431.34;7284955;19;138130;-57
2022/01/29 02:20:19;;;;;;;2.90;2.70;;;;;;;23.05;28.51;95433.72;7299271;19;137573;-56
2022/01/29 02:22:45;;;;;;;2.90;2.70;;;;;;;23.02;28.69;95436.97;7297785;19;137235;-56
2022/01/29 02:25:40;;;;;;;3.23;3.03;;;;;;;23.02;28.45;95431.66;7298301;19;137673;-57
2022/01/29 02:28:10;;;;;;;2.90;2.70;;;;;;;23.02;29.19;95439.63;7286455;19;137541;-57
2022/01/29 02:30:38;;;;;;;3.63;3.10;;;;;;;23.04;29.03;95450.00;7297963;19;137479;-56
2022/01/29 02:33:08;;;;;;;3.00;2.80;;;;;;;22.98;28.97;95435.16;7297078;19;137213;-56
2022/01/29 02:35:39;;;;;;;3.23;2.93;;;;;;;23.03;28.77;95440.44;7298630;19;136914;-56
2022/01/29 02:38:05;;;;;;;3.00;2.80;;;;;;;23.04;29.02;95440.13;7286279;19;138645;-57
2022/01/29 02:40:35;;;;;;;3.30;3.10;;;;;;;23.05;29.44;95433.72;7292722;19;137574;-56
2022/01/29 02:43:17;;;;;;;3.33;3.07;;;;;;;23.01;29.12;95427.41;7297971;19;138838;-56
2022/01/29 02:45:43;;;;;;;2.67;2.47;;;;;;;23.03;28.85;95430.56;7297596;19;138467;-56
2022/01/29 02:48:10;;;;;;;3.23;2.93;;;;;;;23.04;28.95;95432.13;7296639;19;137145;-56
2022/01/29 02:50:36;;;;;;;2.97;2.67;;;;;;;22.97;29.05;95421.06;7283723;19;138324;-56
2022/01/29 02:53:01;;;;;;;3.47;3.07;;;;;;;23.00;28.83;95431.13;7295515;19;138409;-56
2022/01/29 02:55:29;;;;;;;3.33;3.03;;;;;;;22.96;29.01;95426.69;7295981;19;137718;-56
2022/01/29 02:57:55;;;;;;;3.37;3.17;;;;;;;23.01;29.28;95443.38;7298077;19;137278;-56
2022/01/29 03:00:20;;;;;;;3.67;3.37;;;;;;;23.00;29.24;95435.66;7285080;19;138099;-56
2022/01/29 03:02:46;;;;;;;3.40;3.10;;;;;;;23.01;29.19;95430.06;7296560;19;138052;-56
2022/01/29 03:05:11;;;;;;;3.00;2.80;;;;;;;22.98;28.98;95422.63;7298326;19;137942;-55
2022/01/29 03:07:38;;;;;;;3.37;3.17;;;;;;;23.00;28.80;95431.13;7297706;19;137829;-56
2022/01/29 03:10:05;;;;;;;4.40;3.13;;;;;;;23.01;29.12;95427.41;7296226;19;137885;-57
2022/01/29 03:12:30;;;;;;;3.53;3.23;;;;;;;23.01;28.66;95419.41;7283689;19;138484;-56
2022/01/29 03:14:56;;;;;;;3.00;2.80;;;;;;;23.03;28.90;95424.44;7297522;19;136875;-56
2022/01/29 03:17:21;;;;;;;2.93;2.73;;;;;;;23.03;28.92;95417.22;7296555;19;136936;-56
2022/01/29 03:19:47;;;;;;;3.80;3.23;;;;;;;23.01;28.69;95424.72;7294999;19;137320;-56
2022/01/29 03:22:12;;;;;;;3.30;3.10;;;;;;;23.02;28.95;95428.97;7283064;19;137527;-56
2022/01/29 03:24:38;;;;;;;3.87;3.57;;;;;;;23.01;28.69;95430.06;7294792;19;137291;-57
2022/01/29 03:27:03;;;;;;;3.80;3.50;;;;;;;23.00;29.01;95422.34;7297610;19;136970;-57
2022/01/29 03:29:29;;;;;;;5.13;4.73;;;;;;;23.02;28.86;95436.19;7298062;19;138018;-57
2022/01/29 03:31:55;;;;;;;3.83;3.53;;;;;;;22.99;28.20;95429.53;7295337;19;137349;-56
2022/01/29 03:34:20;;;;;;;4.00;3.60;;;;;;;22.95;28.36;95428.56;7281288;19;137028;-56
2022/01/29 03:36:46;;;;;;;3.90;3.60;;;;;;;23.03;28.68;95446.53;7296464;19;137005;-57
2022/01/29 03:39:11;;;;;;;3.80;3.50;;;;;;;22.98;28.64;95437.84;7294152;19;137193;-57
2022/01/29 03:41:37;;;;;;;4.03;3.73;;;;;;;22.94;28.21;95426.97;7295522;19;137557;-57
2022/01/29 03:44:06;;;;;;;4.00;3.70;;;;;;;23.03;27.99;95438.56;7290604;19;137056;-57
2022/01/29 03:46:34;;;;;;;4.00;3.70;;;;;;;23.03;28.54;95443.09;7288949;19;138288;-57
2022/01/29 03:49:00;;;;;;;4.10;3.80;;;;;;;23.05;27.97;95448.91;7295320;19;137319;-57
2022/01/29 03:51:25;;;;;;;3.60;3.30;;;;;;;23.00;27.85;95439.13;7294634;19;137446;-57
2022/01/29 03:53:51;;;;;;;3.70;3.40;;;;;;;23.06;28.35;95455.81;7293465;19;137383;-57
2022/01/29 03:56:17;;;;;;;4.07;3.73;;;;;;;23.00;28.28;95441.78;7281423;19;138786;-57
2022/01/29 03:58:44;;;;;;;3.80;3.50;;;;;;;23.06;27.71;95445.94;7293710;19;137396;-57
2022/01/29 04:01:10;;;;;;;3.50;3.30;;;;;;;23.10;28.33;95454.13;7292960;19;137574;-57
2022/01/29 04:03:35;;;;;;;4.13;3.83;;;;;;;23.08;28.41;95449.09;7294472;19;136938;-56
2022/01/29 04:06:01;;;;;;;3.97;3.57;;;;;;;23.06;28.02;95445.94;7295019;19;137253;-57
2022/01/29 04:08:27;;;;;;;3.57;3.37;;;;;;;23.09;28.01;95445.34;7282055;19;137236;-56
2022/01/29 04:10:53;;;;;;;3.70;3.50;;;;;;;23.10;28.53;95451.47;7295181;19;137324;-57
2022/01/29 04:13:24;;;;;;;3.40;3.20;;;;;;;23.09;28.00;95444.56;7296547;19;137593;-57
2022/01/29 04:15:49;;;;;;;3.50;2.97;;;;;;;23.05;27.78;95454.25;7295962;19;137754;-57
2022/01/29 04:18:15;;;;;;;3.20;3.00;;;;;;;22.84;27.79;95407.72;7281407;19;137382;-56
2022/01/29 04:20:40;;;;;;;3.33;3.13;;;;;;;23.09;27.71;95433.91;7296592;19;138260;-57
2022/01/29 04:23:07;;;;;;;4.47;3.00;;;;;;;23.07;28.23;95431.53;7295678;19;138077;-57
2022/01/29 04:25:32;;;;;;;3.40;3.10;;;;;;;23.04;28.01;95436.69;7295009;19;138215;-57
2022/01/29 04:27:58;;;;;;;3.93;3.63;;;;;;;23.06;28.18;95443.28;7295398;19;137494;-57
2022/01/29 04:30:32;;;;;;;4.00;3.70;;;;;;;22.97;28.31;95422.94;7279461;19;138420;-57
2022/01/29 04:33:01;;;;;;;3.23;3.03;;;;;;;23.05;28.26;95441.72;7295240;19;138337;-57
2022/01/29 04:35:27;;;;;;;3.87;3.57;;;;;;;23.04;27.72;95437.47;7295002;19;136840;-57
2022/01/29 04:37:53;;;;;;;3.57;3.27;;;;;;;23.05;28.25;95440.91;7294402;19;140695;-57
2022/01/29 04:40:19;;;;;;;3.33;3.13;;;;;;;23.03;28.00;95440.44;7281516;19;138436;-57
2022/01/29 04:42:45;;;;;;;4.37;3.40;;;;;;;23.06;27.72;95443.28;7294970;19;136998;-57
2022/01/29 04:45:11;;;;;;;2.87;2.67;;;;;;;23.07;27.73;95444.88;7293602;19;137228;-57
2022/01/29 04:47:37;;;;;;;2.90;2.60;;;;;;;23.05;27.61;95448.91;7294519;19;138232;-57
2022/01/29 04:50:03;;;;;;;3.70;3.00;;;;;;;22.83;27.80;95414.91;7295148;19;137145;-57
2022/01/29 04:52:29;;;;;;;3.40;3.10;;;;;;;23.01;28.27;95446.06;7277739;19;137271;-57
2022/01/29 04:54:54;;;;;;;3.20;2.90;;;;;;;23.05;28.29;95452.38;7292417;19;138286;-57
2022/01/29 04:57:20;;;;;;;3.53;3.23;;;;;;;23.07;27.62;95458.19;7295086;19;138186;-58
2022/01/29 04:59:45;;;;;;;3.80;2.80;;;;;;;23.06;27.71;95459.28;7291678;19;137682;-57
2022/01/29 05:02:11;;;;;;;2.80;2.60;;;;;;;23.04;27.54;95453.44;7280095;19;138770;-57
2022/01/29 05:04:36;;;;;;;3.00;2.80;;;;;;;23.06;27.47;95461.16;7295378;19;138221;-57
2022/01/29 05:07:02;;;;;;;3.50;3.20;;;;;;;22.96;27.91;95446.13;7293456;19;137625;-57
2022/01/29 05:09:27;;;;;;;3.87;3.13;;;;;;;23.05;27.96;95463.03;7294204;19;138419;-57
2022/01/29 05:11:54;;;;;;;3.10;2.90;;;;;;;23.04;27.65;95458.78;7293386;19;138597;-57
2022/01/29 05:14:34;;;;;;;2.80;2.50;;;;;;;23.05;27.49;95462.22;7278592;19;136592;-57
2022/01/29 05:27:48;;;;;;;3.80;3.23;;;;;;;23.03;27.74;95470.53;7292919;19;137433;-57
2022/01/29 05:30:14;;;;;;;4.70;3.73;;;;;;;23.07;28.65;95484.84;7292357;19;138839;-57
2022/01/29 05:32:39;;;;;;;4.47;4.07;;;;;;;22.82;28.18;95477.28;7293335;19;137079;-56
2022/01/29 05:35:05;;;;;;;8.30;3.63;;;;;;;22.65;28.01;95475.13;7280301;19;136840;-56
2022/01/29 05:37:31;;;;;;;7.73;4.30;;;;;;;22.50;27.10;95481.50;7290841;19;137360;-56
2022/01/29 05:39:56;;;;;;;6.27;3.90;;;;;;;22.44;27.51;95487.22;7289629;19;137699;-56
2022/01/29 05:42:22;;;;;;;6.23;4.00;;;;;;;22.28;26.01;95491.97;7292386;19;136621;-57
2022/01/29 05:44:47;;;;;;;4.10;3.70;;;;;;;22.33;25.90;95502.53;7292150;19;137511;-58
2022/01/29 05:47:13;;;;;;;4.33;3.50;;;;;;;22.40;26.35;95502.97;7278556;19;137486;-57
2022/01/29 05:49:38;;;;;;;4.97;4.03;;;;;;;22.47;26.58;95507.91;7293426;19;138042;-57
2022/01/29 05:52:04;;;;;;;4.63;3.77;;;;;;;22.52;26.40;95505.19;7292285;19;137775;-57
2022/01/29 05:54:29;;;;;;;6.60;4.20;;;;;;;22.54;26.17;95512.91;7292944;19;138083;-57
2022/01/29 05:56:56;;;;;;;6.40;4.20;;;;;;;22.52;26.44;95503.31;7278574;19;137645;-58
2022/01/29 05:59:21;;;;;;;4.73;4.33;;;;;;;22.54;25.95;95507.56;7288721;19;137563;-58
2022/01/29 06:01:47;;;;;;;4.50;4.10;;;;;;;22.70;26.30;95522.22;7291747;19;137107;-58
2022/01/29 06:04:12;;;;;;;5.30;4.37;;;;;;;22.72;26.22;95525.38;7291920;19;136977;-58
2022/01/29 06:06:38;;;;;;;4.40;4.10;;;;;;;22.68;26.35;95516.41;7291769;19;137406;-58
2022/01/29 06:09:04;;;;;;;5.27;4.33;;;;;;;22.73;26.41;95518.97;7278117;19;137866;-58
2022/01/29 06:11:33;;;;;;;5.60;4.60;;;;;;;22.68;26.43;95508.41;7291360;19;139102;-58
2022/01/29 06:13:59;;;;;;;4.50;4.10;;;;;;;22.70;26.61;95524.88;7293302;19;137160;-57
2022/01/29 06:16:24;;;;;;;4.40;4.00;;;;;;;22.75;26.17;95527.47;7298082;19;138041;-58
2022/01/29 06:18:50;;;;;;;4.87;4.47;;;;;;;22.74;25.99;95525.88;7283865;19;137429;-57
2022/01/29 06:21:15;;;;;;;4.60;4.20;;;;;;;22.69;26.32;95520.66;7297666;19;139367;-57
2022/01/29 06:23:42;;;;;;;5.93;4.17;;;;;;;22.71;26.16;95527.25;7295147;19;137675;-57
2022/01/29 06:26:10;;;;;;;4.50;4.10;;;;;;;22.75;26.06;95536.25;7294939;19;138006;-57
2022/01/29 06:28:36;;;;;;;5.17;4.73;;;;;;;22.78;26.73;95534.88;7294440;19;137839;-57
2022/01/29 06:31:03;;;;;;;7.83;4.53;;;;;;;22.76;26.56;95531.72;7284790;19;139992;-57
2022/01/29 06:33:29;;;;;;;7.50;4.53;;;;;;;22.72;26.58;95525.38;7298567;19;137034;-57
2022/01/29 06:35:55;;;;;;;7.83;4.30;;;;;;;22.77;26.92;95539.41;7296625;19;136880;-57
2022/01/29 06:38:20;;;;;;;5.00;3.87;;;;;;;22.77;27.25;95538.63;7298068;19;137523;-57
2022/01/29 06:40:46;;;;;;;5.50;3.87;;;;;;;22.76;27.58;95548.47;7283891;19;138436;-56
2022/01/29 06:43:12;;;;;;;3.60;3.40;;;;;;;22.62;27.58;95530.88;7297011;19;136670;-56
2022/01/29 06:45:41;;;;;;;5.00;3.50;;;;;;;22.72;27.62;95552.03;7298216;19;137447;-56
2022/01/29 06:48:07;;;;;;;5.90;3.57;;;;;;;22.77;28.07;95550.06;7296235;19;137578;-55
2022/01/29 06:50:33;;;;;;;11.50;4.80;;;;;;;22.73;28.24;95550.94;7294845;19;137132;-55
2022/01/29 06:52:58;;;;;;;7.37;4.10;;;;;;;22.78;27.49;95559.63;7281421;19;137198;-55
2022/01/29 06:55:24;;;;;;;10.20;4.13;;;;;;;22.75;27.35;95548.78;7292033;19;137519;-55
2022/01/29 06:57:50;;;;;;;5.10;3.80;;;;;;;22.77;26.99;95557.25;7293236;19;137297;-55
2022/01/29 07:00:16;;;;;;;4.03;3.50;;;;;;;22.76;27.15;95559.13;7291148;19;137231;-55
2022/01/29 07:02:42;;;;;;;4.27;3.67;;;;;;;22.79;27.24;95563.09;7284388;19;137228;-55
2022/01/29 07:05:09;;;;;;;4.03;3.63;;;;;;;22.79;27.17;95565.75;7297946;19;138113;-55
2022/01/29 07:07:35;;;;;;;4.27;3.80;;;;;;;22.80;27.14;95576.13;7296226;19;137983;-55
2022/01/29 07:10:01;;;;;;;4.07;3.67;;;;;;;22.89;27.06;95580.84;7297265;19;137281;-56
2022/01/29 07:12:27;;;;;;;6.00;3.60;;;;;;;22.91;27.02;95579.44;7297288;19;137330;-55
2022/01/29 07:14:52;;;;;;;4.07;3.67;;;;;;;22.96;27.07;95579.34;7283166;19;138215;-56
2022/01/29 07:17:22;;;;;;;4.63;3.90;;;;;;;23.02;26.83;95578.22;7297345;19;137316;-55
2022/01/29 07:19:52;;;;;;;4.17;3.40;;;;;;;23.01;27.53;95576.63;7295349;19;138082;-55
2022/01/29 07:22:21;;;;;;;3.90;3.50;;;;;;;22.97;27.22;95582.81;7296516;19;137333;-55
2022/01/29 07:24:47;;;;;;;6.20;3.80;;;;;;;22.81;27.15;95593.69;7283086;19;137107;-56
2022/01/29 07:27:13;;;;;;;4.60;3.30;;;;;;;22.83;26.83;95595.28;7294260;19;137120;-55
2022/01/29 07:29:39;;;;;;;4.60;3.20;;;;;;;22.88;26.99;95592.56;7295443;19;136919;-55
2022/01/29 07:32:05;;;;;;;4.07;3.20;;;;;;;22.75;27.48;95562.09;7295707;19;137009;-55
2022/01/29 07:34:31;;;;;;;5.67;3.87;;;;;;;22.96;27.34;95591.91;7296518;19;137475;-56
2022/01/29 07:36:57;;;;;;;5.87;5.13;;;;;;;22.98;27.46;95587.06;7281777;19;137708;-56
2022/01/29 07:39:24;;;;;;;5.40;5.00;;;;;;;23.00;27.09;95591.00;7293752;19;136923;-56
2022/01/29 07:41:49;;;;;;;7.30;6.60;;;;;;;23.00;27.21;95606.22;7297209;19;137065;-56
2022/01/29 07:44:16;;;;;;;7.47;6.63;;;;;;;23.00;27.41;95601.66;7293702;19;137469;-56
2022/01/29 07:46:41;;;;;;;7.90;7.10;;;;;;;23.01;26.76;95605.13;7282740;19;137663;-55
2022/01/29 07:49:07;;;;;;;7.83;7.03;;;;;;;22.96;27.05;95594.56;7295563;19;137588;-55
2022/01/29 07:51:33;;;;;;;8.47;7.67;;;;;;;22.91;26.77;95582.13;7294770;19;137147;-55
2022/01/29 07:53:58;;;;;;;11.23;7.20;;;;;;;22.98;27.42;95609.16;7296055;19;136985;-55
2022/01/29 07:56:24;;;;;;;7.93;7.27;;;;;;;22.91;27.46;95605.31;7295743;19;137637;-55
2022/01/29 07:58:51;;;;;;;8.77;8.10;;;;;;;22.91;27.09;95610.63;7281081;19;137034;-55
2022/01/29 08:01:17;;;;;;;9.20;7.47;;;;;;;22.84;27.10;95610.97;7294845;19;137289;-56
2022/01/29 08:03:50;;;;;;;8.80;7.63;;;;;;;22.84;27.60;95612.84;7292791;19;137724;-54
2022/01/29 08:06:18;;;;;;;9.40;7.73;;;;;;;22.83;27.34;95614.72;7291955;19;137757;-54
2022/01/29 08:08:44;;;;;;;8.30;7.50;;;;;;;22.77;27.22;95611.34;7282204;19;136857;-54
2022/01/29 08:11:13;;;;;;;8.83;7.77;;;;;;;22.80;27.47;95612.63;7295741;19;136968;-55
2022/01/29 08:13:39;;;;;;;8.50;7.80;;;;;;;22.58;27.27;95580.47;7294456;19;137183;-54
2022/01/29 08:16:05;;;;;;;9.50;8.80;;;;;;;22.75;27.35;95618.03;7295457;19;137448;-55
2022/01/29 08:18:30;;;;;;;9.73;8.83;;;;;;;22.80;26.96;95623.28;7294595;19;137079;-55
2022/01/29 08:20:56;;;;;;;10.40;9.50;;;;;;;22.85;26.78;95609.16;7281791;19;137365;-55
2022/01/29 08:23:21;;;;;;;11.60;10.60;;;;;;;22.82;26.78;95610.50;7296155;19;137280;-55
2022/01/29 08:25:48;;;;;;;11.50;10.40;;;;;;;22.88;27.21;95616.56;7295807;19;137015;-55
2022/01/29 08:28:14;;;;;;;13.90;11.90;;;;;;;22.87;26.85;95621.09;7292802;19;137035;-54
2022/01/29 08:30:39;;;;;;;12.63;11.60;;;;;;;22.86;27.41;95618.72;7282586;19;137501;-54
2022/01/29 08:33:08;;;;;;;12.27;11.27;;;;;;;22.82;27.04;95610.50;7296789;19;139354;-55
2022/01/29 08:35:34;;;;;;;12.77;11.67;;;;;;;22.88;27.16;95622.66;7293669;19;137683;-55
2022/01/29 08:38:00;;;;;;;16.13;14.43;;;;;;;22.83;27.37;95612.06;7292922;19;137469;-55
2022/01/29 08:40:26;;;;;;;14.50;13.30;;;;;;;22.95;26.98;95625.75;7290164;19;137075;-55
2022/01/29 08:42:53;;;;;;;14.33;13.00;;;;;;;22.81;27.47;95608.88;7281513;19;137883;-56
2022/01/29 08:45:20;;;;;;;42.70;15.40;;;;;;;22.89;27.11;95620.78;7294839;19;138610;-55
2022/01/29 08:47:45;;;;;;;16.40;15.00;;;;;;;22.86;27.04;95627.50;7294018;19;137112;-56
2022/01/29 08:50:12;;;;;;;15.53;14.10;;;;;;;22.80;27.18;95629.41;7293700;19;137507;-57
2022/01/29 08:52:38;;;;;;;17.03;15.50;;;;;;;22.79;26.77;95627.81;7279407;19;137285;-56
2022/01/29 08:55:08;;;;;;;15.20;13.70;;;;;;;22.79;26.87;95613.72;7292855;19;137158;-56
2022/01/29 08:57:36;;;;;;;16.87;14.37;;;;;;;22.77;27.53;95637.19;7294466;19;136934;-57
2022/01/29 09:00:04;;;;;;;15.80;13.77;;;;;;;22.83;27.73;95633.38;7290828;19;137019;-56
2022/01/29 09:02:29;;;;;;;19.07;14.90;;;;;;;22.79;27.21;95635.81;7293213;19;138629;-56
2022/01/29 09:04:57;;;;;;;16.37;14.30;;;;;;;22.81;27.41;95641.63;7279577;19;136923;-56
2022/01/29 09:07:23;;;;;;;16.53;14.80;;;;;;;22.77;27.22;95632.66;7293488;19;138088;-56
2022/01/29 09:09:48;;;;;;;14.03;12.40;;;;;;;22.86;27.22;95627.50;7293967;19;137390;-56
2022/01/29 09:12:14;;;;;;;14.00;12.60;;;;;;;22.95;27.79;95632.94;7292029;19;138167;-56
2022/01/29 09:14:40;;;;;;;13.47;12.27;;;;;;;22.93;27.15;95627.91;7281114;19;137187;-58
2022/01/29 09:17:06;;;;;;;15.40;12.43;;;;;;;22.89;27.70;95621.59;7292680;19;137401;-56
2022/01/29 09:19:32;;;;;;;13.53;12.13;;;;;;;22.90;27.67;95639.16;7289834;19;137138;-56
2022/01/29 09:21:57;;;;;;;12.90;11.47;;;;;;;22.88;27.87;95629.88;7292018;19;137820;-56
2022/01/29 09:24:23;;;;;;;14.60;11.47;;;;;;;22.85;27.36;95627.78;7291677;19;137350;-57
2022/01/29 09:26:48;;;;;;;12.20;10.83;;;;;;;22.99;27.68;95626.75;7279682;19;138898;-58
2022/01/29 09:29:14;;;;;;;14.73;11.47;;;;;;;23.11;28.92;95615.63;7291135;19;136974;-56
2022/01/29 09:31:40;;;;;;;14.23;10.70;;;;;;;23.18;31.58;95617.91;7292235;19;138821;-58
2022/01/29 09:34:05;;;;;;;12.33;11.17;;;;;;;23.20;31.72;95607.78;7290712;19;138121;-56
2022/01/29 09:36:31;;;;;;;12.57;11.30;;;;;;;23.11;31.40;95621.75;7291600;19;138897;-59
2022/01/29 09:38:56;;;;;;;12.33;11.10;;;;;;;23.06;31.33;95624.50;7280512;19;141201;-58
2022/01/29 09:41:27;;;;;;;11.60;10.33;;;;;;;23.05;31.07;95635.47;7292757;19;137349;-57
2022/01/29 09:43:54;;;;;;;11.83;10.17;;;;;;;22.96;30.47;95627.31;7291187;19;137331;-57
2022/01/29 09:46:20;;;;;;;9.93;8.87;;;;;;;22.96;30.92;95635.31;7293455;19;136946;-56
2022/01/29 09:48:45;;;;;;;20.37;9.03;;;;;;;22.91;31.04;95638.06;7280886;19;137030;-57
2022/01/29 09:51:14;;;;;;;12.03;8.60;;;;;;;22.90;30.90;95636.50;7299423;19;138885;-56
2022/01/29 09:53:43;;;;;;;16.70;7.70;;;;;;;22.67;30.82;95639.97;7298124;19;138038;-56
2022/01/29 09:56:10;;;;;;;12.37;7.10;;;;;;;22.61;28.89;95643.81;7296184;19;137212;-55
2022/01/29 09:58:36;;;;;;;15.23;6.10;;;;;;;22.50;27.01;95633.28;7292655;19;137128;-56
2022/01/29 10:01:01;;;;;;;7.43;5.80;;;;;;;22.44;26.60;95637.09;7288042;19;137287;-57
2022/01/29 10:03:27;;;;;;;6.17;5.50;;;;;;;22.38;25.98;95632.94;7298898;19;137116;-56
2022/01/29 10:05:54;;;;;;;7.93;6.60;;;;;;;21.59;26.85;95645.75;7299798;19;136944;-56
2022/01/29 10:08:21;;;;;;;6.10;5.50;;;;;;;21.61;26.30;95627.66;7299729;19;137019;-56
2022/01/29 10:10:49;;;;;;;6.67;5.33;;;;;;;21.91;26.04;95629.19;7286257;19;137594;-56
2022/01/29 10:13:29;;;;;;;6.40;5.87;;;;;;;22.17;26.31;95621.75;7297271;19;139157;-56
2022/01/29 10:16:11;;;;;;;6.33;5.47;;;;;;;22.35;26.48;95625.53;7298903;19;137099;-56
2022/01/29 10:18:41;;;;;;;10.83;5.77;;;;;;;22.38;28.14;95622.28;7299173;19;137228;-57
2022/01/29 10:21:16;;;;;;;8.73;6.60;;;;;;;22.56;28.47;95634.03;7280113;19;138574;-57
2022/01/29 10:23:43;;;;;;;7.43;5.53;;;;;;;22.61;28.20;95633.16;7293994;19;137812;-56
2022/01/29 10:26:10;;;;;;;7.77;5.10;;;;;;;22.75;28.53;95628.69;7293919;19;137302;-56
2022/01/29 10:28:37;;;;;;;13.20;6.40;;;;;;;22.83;28.60;95628.06;7298464;19;137080;-57
2022/01/29 10:31:07;;;;;;;7.63;5.23;;;;;;;22.83;28.22;95622.72;7299592;19;137205;-56
2022/01/29 10:33:41;;;;;;;7.60;5.33;;;;;;;22.87;27.70;95623.75;7285682;19;137667;-56
2022/01/29 10:36:17;;;;;;;6.17;4.60;;;;;;;22.90;27.81;95631.16;7299213;19;137571;-57
2022/01/29 10:38:45;;;;;;;8.90;5.13;;;;;;;22.93;28.05;95637.78;7299411;19;136777;-56
2022/01/29 10:41:21;;;;;;;6.60;5.03;;;;;;;22.90;28.51;95625.84;7294743;19;137335;-56
2022/01/29 10:44:18;;;;;;;8.20;7.50;;;;;;;22.91;27.98;95630.06;7284849;19;137228;-56
2022/01/29 10:46:52;;;;;;;9.93;8.93;;;;;;;22.88;28.06;95625.34;7298934;19;136947;-56
2022/01/29 10:49:27;;;;;;;10.93;10.03;;;;;;;22.65;27.60;95600.31;7296248;19;137220;-56
2022/01/29 10:52:00;;;;;;;10.37;9.37;;;;;;;22.81;28.08;95632.84;7298348;19;138907;-56
2022/01/29 10:54:26;;;;;;;12.37;10.63;;;;;;;22.79;27.91;95637.69;7283507;19;137647;-56
2022/01/29 10:56:59;;;;;;;12.37;10.03;;;;;;;22.75;28.15;95636.69;7297979;19;137155;-56
2022/01/29 10:59:30;;;;;;;10.60;9.60;;;;;;;22.73;28.32;95636.19;7296190;19;137005;-56
2022/01/29 11:01:59;;;;;;;15.53;9.80;;;;;;;22.80;28.67;95637.38;7295674;19;136834;-56
2022/01/29 11:04:27;;;;;;;10.80;9.80;;;;;;;22.82;28.96;95631.81;7284664;19;138028;-56
2022/01/29 11:06:54;;;;;;;11.00;10.00;;;;;;;22.85;28.76;95627.78;7272977;19;137922;-56
2022/01/29 11:09:21;;;;;;;12.37;11.17;;;;;;;22.84;28.68;95637.63;7287280;19;137777;-56
2022/01/29 11:11:47;;;;;;;12.33;11.13;;;;;;;22.79;28.79;95627.81;7285345;19;137142;-56
2022/01/29 11:14:16;;;;;;;13.27;10.80;;;;;;;22.83;28.72;95629.94;7289857;19;138984;-61
2022/01/29 11:16:43;;;;;;;12.80;11.50;;;;;;;22.75;28.45;95605.50;7278514;19;137228;-56
2022/01/29 11:19:09;;;;;;;13.27;11.97;;;;;;;22.84;29.12;95621.66;7286059;19;138945;-56
2022/01/29 11:21:36;;;;;;;13.73;12.50;;;;;;;22.87;28.68;95612.31;7288969;19;137774;-56
2022/01/29 11:24:06;;;;;;;14.07;12.90;;;;;;;22.87;28.98;95615.75;7290068;19;139034;-56
2022/01/29 11:26:32;;;;;;;21.00;19.00;;;;;;;22.81;28.82;95616.88;7286046;19;138313;-56
2022/01/29 11:29:22;;;;;;;16.87;15.47;;;;;;;22.84;28.99;95616.31;7276310;19;139082;-56
2022/01/29 11:31:48;;;;;;;16.70;15.30;;;;;;;22.78;28.68;95614.78;7289210;19;137675;-57